createdAt,value
2019-03-28T00:02:14.472Z,37.38
2019-03-28T00:04:42.869Z,26.65
2019-03-28T00:07:11.251Z,40.45
2019-03-28T00:09:39.940Z,33.15
2019-03-28T00:12:08.320Z,40.12
2019-03-28T00:14:36.716Z,38.60
2019-03-28T00:17:05.104Z,43.68
2019-03-28T00:19:33.503Z,41.37
2019-03-28T00:22:01.872Z,36.50
2019-03-28T00:24:34.826Z,41.92
2019-03-28T00:27:03.205Z,46.15
2019-03-28T00:29:31.583Z,34.78
2019-03-28T00:32:00.394Z,39.83
2019-03-28T00:34:28.946Z,45.12
2019-03-28T00:36:57.343Z,40.25
2019-03-28T00:39:25.733Z,31.17
2019-03-28T00:41:54.122Z,39.80
2019-03-28T00:44:22.501Z,38.17
2019-03-28T00:46:50.897Z,38.23
2019-03-28T00:49:19.288Z,41.45
2019-03-28T00:51:47.676Z,37.55
2019-03-28T00:54:16.064Z,40.28
2019-03-28T00:56:47.317Z,38.58
2019-03-28T00:59:14.559Z,40.92
2019-03-28T01:01:42.962Z,42.20
2019-03-28T01:04:11.347Z,37.10
2019-03-28T01:06:39.735Z,39.05
2019-03-28T01:09:09.197Z,39.48
2019-03-28T01:11:37.656Z,41.88
2019-03-28T01:14:06.327Z,44.33
2019-03-28T01:16:34.732Z,41.88
2019-03-28T01:19:03.108Z,46.40
2019-03-28T01:21:31.499Z,37.50
2019-03-28T01:23:59.889Z,35.23
2019-03-28T01:26:28.284Z,45.23
2019-03-28T01:28:56.659Z,43.23
2019-03-28T01:31:25.059Z,47.38
2019-03-28T01:33:53.442Z,44.88
2019-03-28T01:36:21.834Z,41.60
2019-03-28T01:38:50.223Z,43.85
2019-03-28T01:41:18.651Z,34.53
2019-03-28T01:43:47.084Z,32.80
2019-03-28T01:46:15.481Z,44.18
2019-03-28T01:48:43.873Z,41.77
2019-03-28T01:51:12.264Z,51.35
2019-03-28T01:53:40.653Z,40.65
2019-03-28T01:56:09.047Z,41.28
2019-03-28T01:58:37.427Z,40.05
2019-03-28T02:01:05.961Z,44.10
2019-03-28T02:03:34.348Z,37.13
2019-03-28T02:06:02.748Z,42.40
2019-03-28T02:08:31.135Z,31.40
2019-03-28T02:10:59.530Z,51.80
2019-03-28T02:13:27.911Z,49.08
2019-03-28T02:15:56.307Z,46.80
2019-03-28T02:18:24.679Z,43.58
2019-03-28T02:20:53.075Z,38.55
2019-03-28T02:23:21.471Z,47.43
2019-03-28T02:25:49.856Z,55.33
2019-03-28T02:28:18.252Z,50.48
2019-03-28T02:30:46.641Z,47.95
2019-03-28T02:33:15.035Z,50.23
2019-03-28T02:35:43.430Z,46.95
2019-03-28T02:38:11.818Z,39.88
2019-03-28T02:40:40.197Z,50.45
2019-03-28T02:43:08.578Z,48.38
2019-03-28T02:45:37.221Z,46.18
2019-03-28T02:48:05.597Z,57.20
2019-03-28T02:50:33.994Z,54.20
2019-03-28T02:53:02.375Z,47.55
2019-03-28T02:55:30.773Z,43.10
2019-03-28T02:57:59.141Z,46.08
2019-03-28T03:00:27.538Z,49.05
2019-03-28T03:02:55.920Z,53.78
2019-03-28T03:05:24.307Z,55.17
2019-03-28T03:07:52.707Z,62.00
2019-03-28T03:10:21.092Z,55.30
2019-03-28T03:12:49.491Z,62.70
2019-03-28T03:15:17.865Z,57.03
2019-03-28T03:17:46.302Z,64.07
2019-03-28T03:20:14.940Z,44.65
2019-03-28T03:22:43.370Z,46.58
2019-03-28T03:25:12.226Z,45.45
2019-03-28T03:27:56.349Z,57.88
2019-03-28T03:30:12.656Z,43.05
2019-03-28T03:32:41.059Z,56.50
2019-03-28T03:35:09.841Z,49.67
2019-03-28T03:37:38.236Z,51.60
2019-03-28T03:40:08.521Z,42.78
2019-03-28T03:42:36.923Z,48.70
2019-03-28T03:45:07.152Z,57.48
2019-03-28T03:47:35.571Z,56.53
2019-03-28T03:50:05.403Z,41.70
2019-03-28T03:52:33.799Z,53.78
2019-03-28T03:55:02.178Z,41.13
2019-03-28T03:57:30.571Z,61.35
2019-03-28T03:59:58.952Z,58.00
2019-03-28T04:02:27.349Z,55.67
2019-03-28T04:04:56.887Z,59.80
2019-03-28T04:07:25.408Z,61.20
2019-03-28T04:09:53.794Z,58.23
2019-03-28T04:12:22.182Z,51.83
2019-03-28T04:14:50.611Z,57.65
2019-03-28T04:17:19.032Z,57.95
2019-03-28T04:19:47.420Z,60.95
2019-03-28T04:22:15.825Z,53.63
2019-03-28T04:24:44.211Z,53.60
2019-03-28T04:27:12.601Z,49.48
2019-03-28T04:29:40.986Z,52.05
2019-03-28T04:32:09.376Z,41.37
2019-03-28T04:34:37.808Z,51.55
2019-03-28T04:37:06.599Z,55.67
2019-03-28T04:39:35.169Z,45.28
2019-03-28T04:42:03.569Z,43.40
2019-03-28T04:44:31.948Z,56.35
2019-03-28T04:47:00.337Z,54.18
2019-03-28T04:49:28.721Z,56.20
2019-03-28T04:51:57.122Z,51.70
2019-03-28T04:54:25.499Z,54.25
2019-03-28T04:56:53.892Z,52.98
2019-03-28T04:59:22.271Z,46.88
2019-03-28T05:02:02.586Z,51.90
2019-03-28T05:04:21.331Z,51.13
2019-03-28T05:06:50.323Z,52.43
2019-03-28T05:09:18.778Z,56.08
2019-03-28T05:11:47.168Z,62.45
2019-03-28T05:14:15.559Z,55.33
2019-03-28T05:16:43.958Z,59.00
2019-03-28T05:19:12.340Z,61.40
2019-03-28T05:21:40.743Z,57.33
2019-03-28T05:24:09.124Z,55.35
2019-03-28T05:26:37.530Z,58.90
2019-03-28T05:29:05.901Z,77.08
2019-03-28T05:31:34.427Z,62.50
2019-03-28T05:34:03.076Z,61.02
2019-03-28T05:36:31.450Z,65.00
2019-03-28T05:38:59.857Z,58.23
2019-03-28T05:41:28.246Z,56.68
2019-03-28T05:43:56.627Z,60.35
2019-03-28T05:46:25.029Z,52.58
2019-03-28T05:48:53.411Z,64.82
2019-03-28T05:51:21.799Z,64.50
2019-03-28T05:53:50.188Z,53.63
2019-03-28T05:56:18.586Z,52.80
2019-03-28T05:58:46.968Z,51.40
2019-03-28T06:01:15.356Z,50.63
2019-03-28T06:03:43.757Z,44.40
2019-03-28T06:06:12.144Z,56.10
2019-03-28T06:08:40.536Z,53.55
2019-03-28T06:11:08.925Z,56.28
2019-03-28T06:13:37.320Z,52.35
2019-03-28T06:16:05.697Z,57.65
2019-03-28T06:18:34.088Z,51.85
2019-03-28T06:21:02.488Z,62.17
2019-03-28T06:23:30.876Z,54.05
2019-03-28T06:25:59.282Z,57.53
2019-03-28T06:28:27.667Z,57.23
2019-03-28T06:30:56.128Z,58.42
2019-03-28T06:33:24.527Z,57.88
2019-03-28T06:35:52.916Z,57.27
2019-03-28T06:38:21.323Z,61.10
2019-03-28T06:40:49.693Z,59.08
2019-03-28T06:43:18.089Z,58.17
2019-03-28T06:45:46.482Z,52.27
2019-03-28T06:48:14.872Z,56.55
2019-03-28T06:50:43.255Z,55.52
2019-03-28T06:53:12.568Z,55.03
2019-03-28T06:55:41.115Z,59.50
2019-03-28T06:58:09.516Z,61.05
2019-03-28T07:00:37.933Z,53.65
2019-03-28T07:03:06.385Z,52.53
2019-03-28T07:05:34.856Z,58.02
2019-03-28T07:08:03.255Z,60.75
2019-03-28T07:10:31.641Z,54.93
2019-03-28T07:13:00.131Z,55.00
2019-03-28T07:15:28.520Z,57.30
2019-03-28T07:17:56.921Z,56.50
2019-03-28T07:20:26.328Z,53.55
2019-03-28T07:22:54.980Z,51.23
2019-03-28T07:25:25.574Z,56.73
2019-03-28T07:27:53.537Z,53.35
2019-03-28T07:30:22.123Z,54.90
2019-03-28T07:32:50.525Z,51.35
2019-03-28T07:35:18.924Z,57.08
2019-03-28T07:37:47.320Z,50.55
2019-03-28T07:40:16.239Z,48.75
2019-03-28T07:42:44.635Z,54.03
2019-03-28T07:45:13.177Z,54.35
2019-03-28T07:47:41.587Z,55.92
2019-03-28T07:50:11.611Z,51.18
2019-03-28T07:52:40.200Z,48.63
2019-03-28T07:55:09.020Z,52.98
2019-03-28T07:57:37.456Z,50.38
2019-03-28T08:00:09.044Z,56.50
2019-03-28T08:02:37.449Z,46.68
2019-03-28T08:05:09.553Z,56.53
2019-03-28T08:07:45.434Z,53.45
2019-03-28T08:10:10.272Z,56.30
2019-03-28T08:12:38.677Z,56.85
2019-03-28T08:15:09.380Z,60.55
2019-03-28T08:17:37.795Z,46.60
2019-03-28T08:20:08.127Z,54.95
2019-03-28T08:22:36.520Z,46.45
2019-03-28T08:25:11.389Z,47.08
2019-03-28T08:27:38.242Z,52.10
2019-03-28T08:30:18.106Z,46.33
2019-03-28T08:32:40.013Z,51.35
2019-03-28T08:35:08.964Z,52.10
2019-03-28T08:37:37.645Z,48.20
2019-03-28T08:40:09.036Z,46.20
2019-03-28T08:42:37.437Z,46.63
2019-03-28T08:45:07.396Z,48.13
2019-03-28T08:47:35.836Z,45.05
2019-03-28T08:50:06.666Z,52.10
2019-03-28T08:52:35.138Z,47.60
2019-03-28T08:55:05.385Z,49.48
2019-03-28T08:57:33.782Z,46.98
2019-03-28T09:00:02.172Z,40.67
2019-03-28T09:02:30.580Z,51.50
2019-03-28T09:04:58.968Z,45.85
2019-03-28T09:07:27.356Z,39.80
2019-03-28T09:09:55.755Z,39.23
2019-03-28T09:12:24.137Z,41.70
2019-03-28T09:14:52.536Z,42.85
2019-03-28T09:17:23.738Z,39.42
2019-03-28T09:19:51.052Z,39.13
2019-03-28T09:22:19.444Z,40.08
2019-03-28T09:24:47.850Z,39.48
2019-03-28T09:27:16.281Z,39.30
2019-03-28T09:29:44.716Z,41.40
2019-03-28T09:32:13.108Z,40.50
2019-03-28T09:34:41.522Z,44.80
2019-03-28T09:37:09.899Z,41.37
2019-03-28T09:39:38.298Z,41.28
2019-03-28T09:42:06.691Z,41.68
2019-03-28T09:44:35.089Z,36.33
2019-03-28T09:47:03.477Z,40.88
2019-03-28T09:49:31.869Z,45.83
2019-03-28T09:52:00.265Z,44.08
2019-03-28T09:54:28.663Z,46.18
2019-03-28T09:56:57.060Z,43.38
2019-03-28T09:59:25.506Z,42.58
2019-03-28T10:01:53.888Z,36.15
2019-03-28T10:04:22.294Z,40.23
2019-03-28T10:06:50.685Z,36.63
2019-03-28T10:09:19.084Z,39.27
2019-03-28T10:11:47.472Z,43.08
2019-03-28T10:14:15.877Z,40.30
2019-03-28T10:16:44.265Z,41.92
2019-03-28T10:19:12.674Z,34.33
2019-03-28T10:21:41.071Z,31.50
2019-03-28T10:24:09.451Z,36.53
2019-03-28T10:26:37.840Z,36.03
2019-03-28T10:29:06.248Z,28.92
2019-03-28T10:31:34.644Z,32.38
2019-03-28T10:34:03.110Z,28.65
2019-03-28T10:36:31.496Z,24.35
2019-03-28T10:38:59.913Z,29.87
2019-03-28T10:41:28.914Z,26.00
2019-03-28T10:43:57.577Z,27.10
2019-03-28T10:46:26.035Z,28.67
2019-03-28T10:48:54.687Z,26.30
2019-03-28T10:51:23.158Z,27.52
2019-03-28T10:53:51.556Z,28.62
2019-03-28T10:56:22.409Z,24.05
2019-03-28T10:58:50.670Z,27.27
2019-03-28T11:01:36.050Z,22.42
2019-03-28T11:03:49.448Z,26.70
2019-03-28T11:06:17.833Z,23.20
2019-03-28T11:08:46.232Z,25.75
2019-03-28T11:11:14.619Z,23.80
2019-03-28T11:13:43.030Z,26.48
2019-03-28T11:16:14.796Z,23.85
2019-03-28T11:18:41.556Z,20.55
2019-03-28T11:21:09.944Z,19.00
2019-03-28T11:23:38.345Z,20.77
2019-03-28T11:26:06.726Z,25.23
2019-03-28T11:28:35.136Z,18.45
2019-03-28T11:31:03.512Z,22.55
2019-03-28T11:33:31.911Z,25.35
2019-03-28T11:36:00.322Z,19.20
2019-03-28T11:38:28.865Z,22.75
2019-03-28T11:40:57.513Z,17.37
2019-03-28T11:43:25.904Z,21.10
2019-03-28T11:45:54.329Z,15.85
2019-03-28T11:48:23.054Z,20.97
2019-03-28T11:50:51.455Z,19.52
2019-03-28T11:53:19.849Z,18.77
2019-03-28T11:55:48.944Z,18.52
2019-03-28T11:58:17.620Z,15.30
2019-03-28T12:00:46.021Z,15.38
2019-03-28T12:03:14.485Z,16.27
2019-03-28T12:05:43.859Z,17.00
2019-03-28T12:08:12.460Z,11.87
2019-03-28T12:10:40.871Z,15.13
2019-03-28T12:13:09.523Z,17.85
2019-03-28T12:15:37.920Z,15.23
2019-03-28T12:18:06.309Z,16.32
2019-03-28T12:20:34.704Z,10.98
2019-03-28T12:23:03.262Z,13.93
2019-03-28T12:25:31.673Z,16.48
2019-03-28T12:28:00.519Z,14.95
2019-03-28T12:30:29.047Z,13.53
2019-03-28T12:32:57.435Z,14.00
2019-03-28T12:35:25.841Z,13.00
2019-03-28T12:37:54.222Z,12.88
2019-03-28T12:40:22.929Z,15.05
2019-03-28T12:42:51.386Z,12.78
2019-03-28T12:45:19.781Z,16.25
2019-03-28T12:47:48.160Z,14.40
2019-03-28T12:50:16.896Z,13.05
2019-03-28T12:52:45.280Z,13.78
2019-03-28T12:55:13.741Z,13.70
2019-03-28T12:57:42.128Z,13.00
2019-03-28T13:00:12.270Z,14.28
2019-03-28T13:02:40.723Z,16.12
2019-03-28T13:05:09.967Z,17.37
2019-03-28T13:07:38.369Z,18.15
2019-03-28T13:10:11.031Z,16.05
2019-03-28T13:12:39.438Z,16.02
2019-03-28T13:15:08.287Z,16.85
2019-03-28T13:17:36.740Z,15.48
2019-03-28T13:20:09.823Z,15.72
2019-03-28T13:22:38.209Z,15.98
2019-03-28T13:25:07.648Z,17.77
2019-03-28T13:27:36.690Z,16.30
2019-03-28T13:30:08.596Z,13.63
2019-03-28T13:32:42.007Z,14.33
2019-03-28T13:35:07.838Z,12.47
2019-03-28T13:37:36.221Z,11.25
2019-03-28T13:40:07.929Z,15.18
2019-03-28T13:42:37.084Z,14.40
2019-03-28T13:45:09.784Z,15.70
2019-03-28T13:47:38.172Z,15.03
2019-03-28T13:50:10.958Z,12.05
2019-03-28T13:52:39.345Z,14.00
2019-03-28T13:55:07.884Z,13.43
2019-03-28T13:57:36.337Z,12.93
2019-03-28T14:00:09.509Z,14.38
2019-03-28T14:02:37.888Z,9.00
2019-03-28T14:05:07.742Z,12.75
2019-03-28T14:07:36.396Z,15.95
2019-03-28T14:10:08.364Z,15.20
2019-03-28T14:12:36.819Z,8.38
2019-03-28T14:15:07.260Z,10.98
2019-03-28T14:20:05.186Z,10.55
2019-03-28T14:22:33.572Z,8.85
2019-03-28T14:25:01.965Z,9.40
2019-03-28T14:27:30.369Z,8.68
2019-03-28T14:29:58.753Z,11.45
2019-03-28T14:32:27.151Z,13.53
2019-03-28T14:34:55.829Z,8.25
2019-03-28T14:37:24.210Z,7.12
2019-03-28T14:39:52.602Z,7.85
2019-03-28T14:42:20.981Z,7.95
2019-03-28T14:44:49.377Z,8.88
2019-03-28T14:47:17.765Z,6.87
2019-03-28T14:49:46.390Z,7.50
2019-03-28T14:52:14.908Z,6.45
2019-03-28T14:54:43.312Z,5.58
2019-03-28T14:57:13.229Z,8.88
2019-03-28T14:59:43.664Z,8.85
2019-03-28T15:04:40.002Z,12.28
2019-03-28T15:07:08.414Z,11.00
2019-03-28T15:09:36.793Z,6.85
2019-03-28T15:12:05.189Z,9.80
2019-03-28T15:14:33.576Z,4.60
2019-03-28T15:17:01.980Z,9.05
2019-03-28T15:19:30.374Z,8.18
2019-03-28T15:21:58.759Z,8.40
2019-03-28T15:24:27.136Z,6.97
2019-03-28T15:26:55.797Z,7.25
2019-03-28T15:29:24.600Z,6.75
2019-03-28T15:31:52.987Z,6.80
2019-03-28T15:34:21.375Z,6.80
2019-03-28T15:36:49.770Z,5.40
2019-03-28T15:39:18.149Z,5.12
2019-03-28T15:41:46.545Z,5.97
2019-03-28T15:44:14.932Z,3.65
2019-03-28T15:46:43.332Z,4.75
2019-03-28T15:49:11.716Z,3.85
2019-03-28T15:51:40.113Z,2.67
2019-03-28T15:54:09.060Z,2.85
2019-03-28T15:56:37.462Z,3.60
2019-03-28T15:59:05.836Z,2.70
2019-03-28T16:01:34.237Z,4.70
2019-03-28T16:04:02.626Z,2.55
2019-03-28T16:06:31.021Z,2.92
2019-03-28T16:08:59.409Z,4.92
2019-03-28T16:11:27.875Z,4.60
2019-03-28T16:13:56.268Z,4.60
2019-03-28T16:16:24.928Z,4.90
2019-03-28T16:18:53.318Z,2.98
2019-03-28T16:21:21.713Z,8.63
2019-03-28T16:23:50.109Z,9.10
2019-03-28T16:26:18.509Z,5.85
2019-03-28T16:28:46.905Z,7.25
2019-03-28T16:31:15.299Z,6.95
2019-03-28T16:33:43.680Z,6.97
2019-03-28T16:36:12.081Z,4.95
2019-03-28T16:38:40.468Z,8.18
2019-03-28T16:41:08.864Z,5.72
2019-03-28T16:43:37.261Z,7.08
2019-03-28T16:46:07.728Z,7.15
2019-03-28T16:48:35.779Z,9.95
2019-03-28T16:51:04.180Z,10.10
2019-03-28T16:53:32.575Z,5.85
2019-03-28T16:56:02.333Z,7.53
2019-03-28T16:58:31.000Z,7.17
2019-03-28T17:00:59.396Z,6.67
2019-03-28T17:03:27.779Z,4.85
2019-03-28T17:05:56.251Z,6.70
2019-03-28T17:08:26.584Z,7.25
2019-03-28T17:10:55.123Z,7.53
2019-03-28T17:13:23.579Z,9.43
2019-03-28T17:15:52.039Z,9.85
2019-03-28T17:18:20.416Z,6.83
2019-03-28T17:20:49.075Z,5.97
2019-03-28T17:23:17.597Z,6.50
2019-03-28T17:25:45.984Z,7.85
2019-03-28T17:28:14.389Z,11.22
2019-03-28T17:30:43.222Z,4.70
2019-03-28T17:33:11.609Z,6.08
2019-03-28T17:35:39.987Z,6.15
2019-03-28T17:38:08.381Z,6.97
2019-03-28T17:40:37.053Z,8.38
2019-03-28T17:43:05.547Z,9.15
2019-03-28T17:45:33.993Z,9.63
2019-03-28T17:48:02.800Z,7.70
2019-03-28T17:50:31.353Z,7.47
2019-03-28T17:52:59.739Z,10.28
2019-03-28T17:55:28.128Z,9.03
2019-03-28T17:57:56.526Z,7.75
2019-03-28T18:00:27.832Z,9.58
2019-03-28T18:05:25.067Z,10.05
2019-03-28T18:07:53.760Z,6.87
2019-03-28T18:10:22.216Z,7.83
2019-03-28T18:12:50.608Z,7.72
2019-03-28T18:15:19.060Z,8.28
2019-03-28T18:17:47.456Z,9.48
2019-03-28T18:20:16.172Z,6.33
2019-03-28T18:22:44.569Z,7.55
2019-03-28T18:25:13.096Z,10.20
2019-03-28T18:27:41.491Z,9.95
2019-03-28T18:30:10.717Z,10.38
2019-03-28T18:32:39.537Z,7.45
2019-03-28T18:35:08.551Z,7.22
2019-03-28T18:37:36.977Z,5.47
2019-03-28T18:40:08.923Z,6.20
2019-03-28T18:42:37.317Z,6.45
2019-03-28T18:45:07.927Z,9.28
2019-03-28T18:47:36.657Z,5.75
2019-03-28T18:50:06.868Z,8.18
2019-03-28T18:52:35.264Z,6.33
2019-03-28T18:55:04.693Z,9.15
2019-03-28T18:57:33.088Z,7.97
2019-03-28T19:00:01.480Z,6.08
2019-03-28T19:02:29.889Z,6.87
2019-03-28T19:04:58.345Z,5.37
2019-03-28T19:07:26.742Z,4.03
2019-03-28T19:09:55.116Z,3.40
2019-03-28T19:12:23.516Z,5.28
2019-03-28T19:14:51.905Z,5.58
2019-03-28T19:17:20.290Z,4.47
2019-03-28T19:19:48.679Z,4.03
2019-03-28T19:22:17.073Z,5.90
2019-03-28T19:24:45.451Z,4.58
2019-03-28T19:27:13.851Z,3.87
2019-03-28T19:29:42.236Z,5.17
2019-03-28T19:32:10.638Z,6.85
2019-03-28T19:34:39.008Z,9.33
2019-03-28T19:37:07.776Z,6.72
2019-03-28T19:39:36.709Z,4.65
2019-03-28T19:42:05.263Z,7.25
2019-03-28T19:44:33.649Z,6.45
2019-03-28T19:47:02.045Z,6.22
2019-03-28T19:49:30.744Z,5.40
2019-03-28T19:51:59.980Z,6.45
2019-03-28T19:54:28.505Z,6.53
2019-03-28T19:56:57.444Z,6.35
2019-03-28T19:59:26.038Z,7.05
2019-03-28T20:01:54.638Z,5.45
2019-03-28T20:04:23.011Z,5.65
2019-03-28T20:06:51.395Z,6.97
2019-03-28T20:09:19.792Z,7.12
2019-03-28T20:11:48.178Z,6.28
2019-03-28T20:14:16.568Z,7.20
2019-03-28T20:16:44.952Z,7.87
2019-03-28T20:19:13.353Z,7.28
2019-03-28T20:21:41.741Z,6.17
2019-03-28T20:24:10.140Z,7.20
2019-03-28T20:26:38.516Z,9.15
2019-03-28T20:29:06.917Z,9.30
2019-03-28T20:31:35.309Z,6.45
2019-03-28T20:34:03.802Z,13.62
2019-03-28T20:36:38.495Z,11.55
2019-03-28T20:39:04.298Z,9.53
2019-03-28T20:41:32.480Z,9.95
2019-03-28T20:44:00.880Z,10.45
2019-03-28T20:46:29.304Z,9.53
2019-03-28T20:48:57.737Z,9.78
2019-03-28T20:51:26.637Z,7.30
2019-03-28T20:53:55.303Z,12.47
2019-03-28T20:56:23.691Z,10.28
2019-03-28T20:58:52.086Z,10.98
2019-03-28T21:01:20.465Z,11.63
2019-03-28T21:03:49.675Z,11.78
2019-03-28T21:06:19.621Z,9.13
2019-03-28T21:08:48.072Z,8.90
2019-03-28T21:11:16.443Z,9.00
2019-03-28T21:13:44.837Z,8.78
2019-03-28T21:16:13.222Z,8.08
2019-03-28T21:18:41.616Z,10.65
2019-03-28T21:21:09.997Z,9.68
2019-03-28T21:23:38.860Z,10.45
2019-03-28T21:26:07.460Z,10.55
2019-03-28T21:28:46.460Z,5.95
2019-03-28T21:31:05.980Z,6.83
2019-03-28T21:33:34.381Z,15.08
2019-03-28T21:36:02.832Z,7.30
2019-03-28T21:38:31.236Z,6.28
2019-03-28T21:40:59.818Z,10.65
2019-03-28T21:43:28.280Z,7.15
2019-03-28T21:45:56.672Z,9.25
2019-03-28T21:48:25.097Z,14.93
2019-03-28T21:50:53.858Z,8.70
2019-03-28T21:53:22.360Z,13.62
2019-03-28T21:55:55.345Z,12.90
2019-03-28T21:58:20.858Z,9.20
2019-03-28T22:00:49.251Z,14.28
2019-03-28T22:03:17.639Z,9.75
2019-03-28T22:05:46.028Z,11.00
2019-03-28T22:08:14.427Z,13.65
2019-03-28T22:10:43.091Z,8.80
2019-03-28T22:13:12.390Z,13.75
2019-03-28T22:15:40.950Z,11.10
2019-03-28T22:18:09.350Z,9.95
2019-03-28T22:20:37.728Z,10.95
2019-03-28T22:23:06.123Z,9.55
2019-03-28T22:25:34.511Z,12.07
2019-03-28T22:28:02.912Z,8.45
2019-03-28T22:30:31.318Z,13.00
2019-03-28T22:33:00.023Z,10.70
2019-03-28T22:35:28.399Z,9.13
2019-03-28T22:37:56.797Z,10.65
2019-03-28T22:40:25.185Z,10.58
2019-03-28T22:42:53.572Z,9.98
2019-03-28T22:45:21.960Z,8.68
2019-03-28T22:47:50.340Z,8.35
2019-03-28T22:50:18.732Z,7.83
2019-03-28T22:52:47.115Z,9.33
2019-03-28T22:55:15.668Z,11.90
2019-03-28T22:57:44.039Z,8.25
2019-03-28T23:00:14.574Z,6.83
2019-03-28T23:02:43.021Z,9.80
2019-03-28T23:05:11.660Z,9.38
2019-03-28T23:07:40.881Z,9.70
2019-03-28T23:10:09.856Z,7.70
2019-03-28T23:12:38.237Z,7.95
2019-03-28T23:15:08.165Z,7.67
2019-03-28T23:17:36.547Z,10.23
2019-03-28T23:20:09.443Z,12.00
2019-03-28T23:22:37.824Z,16.55
2019-03-28T23:25:06.664Z,15.95
2019-03-28T23:27:35.119Z,14.28
2019-03-28T23:30:04.756Z,16.75
2019-03-28T23:32:33.136Z,17.77
2019-03-28T23:35:01.534Z,11.97
2019-03-28T23:37:29.905Z,11.28
2019-03-28T23:39:58.296Z,14.58
2019-03-28T23:42:26.676Z,14.10
2019-03-28T23:44:55.064Z,18.98
2019-03-28T23:47:23.459Z,11.57
2019-03-28T23:49:51.855Z,13.50
2019-03-28T23:52:20.236Z,13.80
2019-03-28T23:54:48.628Z,12.95
2019-03-28T23:57:17.011Z,11.38
2019-03-28T23:59:45.409Z,12.73
